sensor_id;sensor_type;location;lat;lon;timestamp;pressure;altitude;pressure_sealevel;temperature;humidity
71976;BME280;60680;52.182;5.398;2022-10-15T00:01:04;100773.09;;;12.22;94.63
71976;BME280;60680;52.182;5.398;2022-10-15T00:03:31;100775.63;;;12.24;94.68
71976;BME280;60680;52.182;5.398;2022-10-15T00:06:02;100777.34;;;12.23;95.19
71976;BME280;60680;52.182;5.398;2022-10-15T00:08:30;100779.13;;;12.23;94.65
71976;BME280;60680;52.182;5.398;2022-10-15T00:11:04;100772.13;;;12.23;95.27
71976;BME280;60680;52.182;5.398;2022-10-15T00:13:32;100773.09;;;12.22;94.74
71976;BME280;60680;52.182;5.398;2022-10-15T00:16:00;100773.16;;;12.21;94.88
71976;BME280;60680;52.182;5.398;2022-10-15T00:18:27;100775.97;;;12.18;94.64
71976;BME280;60680;52.182;5.398;2022-10-15T00:20:54;100767.19;;;12.19;94.90
71976;BME280;60680;52.182;5.398;2022-10-15T00:23:20;100775.78;;;12.21;94.82
71976;BME280;60680;52.182;5.398;2022-10-15T00:25:47;100774.88;;;12.22;95.33
71976;BME280;60680;52.182;5.398;2022-10-15T00:28:13;100767.88;;;12.22;94.93
71976;BME280;60680;52.182;5.398;2022-10-15T00:30:40;100776.53;;;12.23;95.07
71976;BME280;60680;52.182;5.398;2022-10-15T00:33:07;100774.75;;;12.23;94.80
71976;BME280;60680;52.182;5.398;2022-10-15T00:35:33;100769.53;;;12.23;95.51
71976;BME280;60680;52.182;5.398;2022-10-15T00:38:00;100772.88;;;12.26;95.36
71976;BME280;60680;52.182;5.398;2022-10-15T00:40:27;100770.41;;;12.24;95.46
71976;BME280;60680;52.182;5.398;2022-10-15T00:42:54;100764.22;;;12.25;94.94
71976;BME280;60680;52.182;5.398;2022-10-15T00:45:20;100768.63;;;12.24;94.85
71976;BME280;60680;52.182;5.398;2022-10-15T00:47:48;100759.84;;;12.26;94.90
71976;BME280;60680;52.182;5.398;2022-10-15T00:50:21;100763.22;;;12.28;95.36
71976;BME280;60680;52.182;5.398;2022-10-15T00:53:08;100768.34;;;12.29;95.06
71976;BME280;60680;52.182;5.398;2022-10-15T00:55:40;100758.94;;;12.27;95.43
71976;BME280;60680;52.182;5.398;2022-10-15T00:58:11;100755.38;;;12.28;95.47
71976;BME280;60680;52.182;5.398;2022-10-15T01:00:38;100747.75;;;12.24;95.58
71976;BME280;60680;52.182;5.398;2022-10-15T01:03:05;100762.44;;;12.26;95.50
71976;BME280;60680;52.182;5.398;2022-10-15T01:05:33;100750.34;;;12.24;95.40
71976;BME280;60680;52.182;5.398;2022-10-15T01:08:00;100756.31;;;12.27;95.91
71976;BME280;60680;52.182;5.398;2022-10-15T01:10:47;100759.69;;;12.29;95.75
71976;BME280;60680;52.182;5.398;2022-10-15T01:13:30;100754.34;;;12.30;95.39
71976;BME280;60680;52.182;5.398;2022-10-15T01:16:40;100756.88;;;12.32;95.28
71976;BME280;60680;52.182;5.398;2022-10-15T01:19:40;100747.38;;;12.31;96.27
71976;BME280;60680;52.182;5.398;2022-10-15T01:22:52;100738.69;;;12.30;95.48
71976;BME280;60680;52.182;5.398;2022-10-15T01:28:15;100745.97;;;12.25;95.90
71976;BME280;60680;52.182;5.398;2022-10-15T01:30:46;100747.75;;;12.24;96.47
71976;BME280;60680;52.182;5.398;2022-10-15T01:33:40;100731.97;;;12.26;96.25
71976;BME280;60680;52.182;5.398;2022-10-15T01:36:41;100740.00;;;12.23;96.43
71976;BME280;60680;52.182;5.398;2022-10-15T01:39:13;100740.19;;;12.20;96.31
71976;BME280;60680;52.182;5.398;2022-10-15T01:41:53;100736.72;;;12.19;96.54
71976;BME280;60680;52.182;5.398;2022-10-15T01:44:33;100735.13;;;12.17;96.55
71976;BME280;60680;52.182;5.398;2022-10-15T01:47:07;100735.22;;;12.15;96.37
71976;BME280;60680;52.182;5.398;2022-10-15T01:49:40;100738.03;;;12.12;96.17
71976;BME280;60680;52.182;5.398;2022-10-15T01:52:13;100727.66;;;12.11;96.87
71976;BME280;60680;52.182;5.398;2022-10-15T01:54:42;100728.69;;;12.08;96.45
71976;BME280;60680;52.182;5.398;2022-10-15T01:57:11;100717.44;;;12.08;96.32
71976;BME280;60680;52.182;5.398;2022-10-15T01:59:39;100720.13;;;12.06;96.04
71976;BME280;60680;52.182;5.398;2022-10-15T02:02:06;100717.59;;;12.04;95.86
71976;BME280;60680;52.182;5.398;2022-10-15T02:04:33;100715.09;;;12.03;96.02
71976;BME280;60680;52.182;5.398;2022-10-15T02:07:13;100711.53;;;12.04;96.32
71976;BME280;60680;52.182;5.398;2022-10-15T02:09:50;100710.88;;;12.00;96.51
71976;BME280;60680;52.182;5.398;2022-10-15T02:15:35;100713.47;;;12.00;96.00
71976;BME280;60680;52.182;5.398;2022-10-15T02:21:09;100693.84;;;11.95;96.39
71976;BME280;60680;52.182;5.398;2022-10-15T02:23:50;100692.25;;;11.92;95.97
71976;BME280;60680;52.182;5.398;2022-10-15T02:26:20;100690.66;;;11.90;96.35
71976;BME280;60680;52.182;5.398;2022-10-15T02:28:53;100693.38;;;11.88;96.02
71976;BME280;60680;52.182;5.398;2022-10-15T02:31:22;100689.22;;;11.84;95.93
71976;BME280;60680;52.182;5.398;2022-10-15T02:33:54;100684.84;;;11.84;96.29
71976;BME280;60680;52.182;5.398;2022-10-15T02:36:23;100684.00;;;11.84;96.35
71976;BME280;60680;52.182;5.398;2022-10-15T02:38:50;100682.16;;;11.86;96.95
71976;BME280;60680;52.182;5.398;2022-10-15T02:41:19;100681.22;;;11.87;96.32
71976;BME280;60680;52.182;5.398;2022-10-15T02:43:46;100675.94;;;11.89;96.67
71976;BME280;60680;52.182;5.398;2022-10-15T02:46:13;100682.00;;;11.89;96.92
71976;BME280;60680;52.182;5.398;2022-10-15T02:48:41;100679.38;;;11.89;96.43
71976;BME280;60680;52.182;5.398;2022-10-15T02:51:07;100676.78;;;11.89;97.26
71976;BME280;60680;52.182;5.398;2022-10-15T02:53:34;100676.78;;;11.89;96.81
71976;BME280;60680;52.182;5.398;2022-10-15T02:56:00;100671.56;;;11.89;96.50
71976;BME280;60680;52.182;5.398;2022-10-15T02:58:27;100671.56;;;11.89;97.07
71976;BME280;60680;52.182;5.398;2022-10-15T03:00:54;100667.34;;;11.87;96.22
71976;BME280;60680;52.182;5.398;2022-10-15T03:03:21;100665.56;;;11.87;96.94
71976;BME280;60680;52.182;5.398;2022-10-15T03:05:48;100646.56;;;11.85;96.91
71976;BME280;60680;52.182;5.398;2022-10-15T03:08:14;100656.31;;;11.81;96.80
71976;BME280;60680;52.182;5.398;2022-10-15T03:10:41;100656.44;;;11.80;96.80
71976;BME280;60680;52.182;5.398;2022-10-15T03:13:08;100652.06;;;11.80;96.81
71976;BME280;60680;52.182;5.398;2022-10-15T03:15:35;100653.06;;;11.78;96.23
71976;BME280;60680;52.182;5.398;2022-10-15T03:18:03;100651.38;;;11.77;96.62
71976;BME280;60680;52.182;5.398;2022-10-15T03:20:29;100650.63;;;11.75;96.00
71976;BME280;60680;52.182;5.398;2022-10-15T03:22:56;100643.00;;;11.72;96.15
71976;BME280;60680;52.182;5.398;2022-10-15T03:25:22;100640.47;;;11.70;96.16
71976;BME280;60680;52.182;5.398;2022-10-15T03:27:49;100646.72;;;11.68;95.48
71976;BME280;60680;52.182;5.398;2022-10-15T03:30:18;100645.97;;;11.66;95.54
71976;BME280;60680;52.182;5.398;2022-10-15T03:32:45;100646.16;;;11.62;95.27
71976;BME280;60680;52.182;5.398;2022-10-15T03:35:13;100640.09;;;11.62;96.08
71976;BME280;60680;52.182;5.398;2022-10-15T03:37:40;100641.84;;;11.61;95.85
71976;BME280;60680;52.182;5.398;2022-10-15T03:40:07;100641.84;;;11.61;95.67
71976;BME280;60680;52.182;5.398;2022-10-15T03:42:40;100648.94;;;11.59;95.75
71976;BME280;60680;52.182;5.398;2022-10-15T03:45:07;100642.03;;;11.58;95.81
71976;BME280;60680;52.182;5.398;2022-10-15T03:47:34;100638.69;;;11.56;95.67
71976;BME280;60680;52.182;5.398;2022-10-15T03:50:01;100632.72;;;11.54;95.52
71976;BME280;60680;52.182;5.398;2022-10-15T03:52:27;100626.75;;;11.52;95.67
71976;BME280;60680;52.182;5.398;2022-10-15T03:54:53;100625.06;;;11.51;95.74
71976;BME280;60680;52.182;5.398;2022-10-15T03:57:20;100634.59;;;11.52;95.98
71976;BME280;60680;52.182;5.398;2022-10-15T03:59:47;100631.22;;;11.50;96.14
71976;BME280;60680;52.182;5.398;2022-10-15T04:02:16;100633.91;;;11.49;96.26
71976;BME280;60680;52.182;5.398;2022-10-15T04:04:57;100632.25;;;11.48;96.08
71976;BME280;60680;52.182;5.398;2022-10-15T04:07:23;100631.50;;;11.46;96.06
71976;BME280;60680;52.182;5.398;2022-10-15T04:09:50;100632.47;;;11.43;95.83
71976;BME280;60680;52.182;5.398;2022-10-15T04:12:17;100640.41;;;11.41;96.03
71976;BME280;60680;52.182;5.398;2022-10-15T04:14:44;100640.50;;;11.40;96.18
71976;BME280;60680;52.182;5.398;2022-10-15T04:17:10;100639.53;;;11.41;96.11
71976;BME280;60680;52.182;5.398;2022-10-15T04:19:37;100645.69;;;11.40;96.00
71976;BME280;60680;52.182;5.398;2022-10-15T04:22:03;100645.63;;;11.41;96.33
71976;BME280;60680;52.182;5.398;2022-10-15T04:24:30;100656.13;;;11.40;96.17
71976;BME280;60680;52.182;5.398;2022-10-15T04:26:56;100649.22;;;11.39;96.79
71976;BME280;60680;52.182;5.398;2022-10-15T04:29:23;100652.69;;;11.39;96.49
71976;BME280;60680;52.182;5.398;2022-10-15T04:31:49;100654.53;;;11.37;96.90
71976;BME280;60680;52.182;5.398;2022-10-15T04:34:15;100653.88;;;11.34;96.31
71976;BME280;60680;52.182;5.398;2022-10-15T04:36:42;100652.19;;;11.33;96.44
71976;BME280;60680;52.182;5.398;2022-10-15T04:39:08;100649.47;;;11.34;96.58
71976;BME280;60680;52.182;5.398;2022-10-15T04:41:39;100659.06;;;11.34;96.93
71976;BME280;60680;52.182;5.398;2022-10-15T04:44:06;100658.31;;;11.32;96.12
71976;BME280;60680;52.182;5.398;2022-10-15T04:46:32;100664.28;;;11.34;97.18
71976;BME280;60680;52.182;5.398;2022-10-15T04:48:58;100664.28;;;11.34;96.71
71976;BME280;60680;52.182;5.398;2022-10-15T04:51:25;100657.41;;;11.33;96.55
71976;BME280;60680;52.182;5.398;2022-10-15T04:53:52;100652.94;;;11.35;96.34
71976;BME280;60680;52.182;5.398;2022-10-15T04:56:20;100658.41;;;11.30;96.79
71976;BME280;60680;52.182;5.398;2022-10-15T04:58:48;100657.50;;;11.31;96.43
71976;BME280;60680;52.182;5.398;2022-10-15T05:01:17;100660.00;;;11.33;96.98
71976;BME280;60680;52.182;5.398;2022-10-15T05:03:45;100659.06;;;11.34;97.20
71976;BME280;60680;52.182;5.398;2022-10-15T05:06:15;100651.19;;;11.35;97.07
71976;BME280;60680;52.182;5.398;2022-10-15T05:08:42;100657.03;;;11.39;96.69
71976;BME280;60680;52.182;5.398;2022-10-15T05:11:12;100656.97;;;11.40;97.04
71976;BME280;60680;52.182;5.398;2022-10-15T05:13:38;100661.34;;;11.40;97.10
71976;BME280;60680;52.182;5.398;2022-10-15T05:18:39;100659.41;;;11.43;96.99
71976;BME280;60680;52.182;5.398;2022-10-15T05:21:06;100654.09;;;11.45;97.38
71976;BME280;60680;52.182;5.398;2022-10-15T05:23:33;100650.66;;;11.45;97.24
71976;BME280;60680;52.182;5.398;2022-10-15T05:26:01;100649.72;;;11.46;96.88
71976;BME280;60680;52.182;5.398;2022-10-15T05:28:28;100653.16;;;11.46;97.30
71976;BME280;60680;52.182;5.398;2022-10-15T05:30:55;100649.72;;;11.46;97.38
71976;BME280;60680;52.182;5.398;2022-10-15T05:33:22;100650.47;;;11.48;97.82
71976;BME280;60680;52.182;5.398;2022-10-15T05:35:48;100648.72;;;11.48;97.71
71976;BME280;60680;52.182;5.398;2022-10-15T05:38:14;100650.47;;;11.48;97.75
71976;BME280;60680;52.182;5.398;2022-10-15T05:40:46;100640.69;;;11.51;98.21
71976;BME280;60680;52.182;5.398;2022-10-15T05:43:13;100646.59;;;11.55;98.62
71976;BME280;60680;52.182;5.398;2022-10-15T05:45:39;100642.03;;;11.58;98.82
71976;BME280;60680;52.182;5.398;2022-10-15T05:48:06;100642.59;;;11.63;99.66
71976;BME280;60680;52.182;5.398;2022-10-15T05:50:33;100645.88;;;11.67;100.00
71976;BME280;60680;52.182;5.398;2022-10-15T05:53:01;100651.75;;;11.71;100.00
71976;BME280;60680;52.182;5.398;2022-10-15T05:55:27;100641.16;;;11.74;99.71
71976;BME280;60680;52.182;5.398;2022-10-15T05:57:54;100647.13;;;11.76;100.00
71976;BME280;60680;52.182;5.398;2022-10-15T06:00:20;100645.25;;;11.78;100.00
71976;BME280;60680;52.182;5.398;2022-10-15T06:02:47;100645.19;;;11.79;100.00
71976;BME280;60680;52.182;5.398;2022-10-15T06:05:13;100640.59;;;11.83;100.00
71976;BME280;60680;52.182;5.398;2022-10-15T06:07:40;100637.91;;;11.84;100.00
71976;BME280;60680;52.182;5.398;2022-10-15T06:10:06;100649.09;;;11.87;100.00
71976;BME280;60680;52.182;5.398;2022-10-15T06:12:33;100647.31;;;11.87;100.00
71976;BME280;60680;52.182;5.398;2022-10-15T06:14:59;100647.25;;;11.89;100.00
71976;BME280;60680;52.182;5.398;2022-10-15T06:17:26;100647.19;;;11.90;100.00
71976;BME280;60680;52.182;5.398;2022-10-15T06:19:52;100644.47;;;11.92;100.00
71976;BME280;60680;52.182;5.398;2022-10-15T06:22:19;100647.81;;;11.94;100.00
71976;BME280;60680;52.182;5.398;2022-10-15T06:24:45;100643.34;;;11.96;100.00
71976;BME280;60680;52.182;5.398;2022-10-15T06:27:11;100646.78;;;11.96;100.00
71976;BME280;60680;52.182;5.398;2022-10-15T06:29:39;100646.72;;;11.98;100.00
71976;BME280;60680;52.182;5.398;2022-10-15T06:32:09;100646.63;;;11.99;100.00
71976;BME280;60680;52.182;5.398;2022-10-15T06:34:36;100651.00;;;11.99;100.00
71976;BME280;60680;52.182;5.398;2022-10-15T06:37:02;100652.66;;;12.00;100.00
71976;BME280;60680;52.182;5.398;2022-10-15T06:39:29;100654.44;;;11.99;100.00
71976;BME280;60680;52.182;5.398;2022-10-15T06:41:55;100661.31;;;12.00;100.00
71976;BME280;60680;52.182;5.398;2022-10-15T06:44:22;100658.63;;;12.02;100.00
71976;BME280;60680;52.182;5.398;2022-10-15T06:46:48;100655.19;;;12.01;100.00
71976;BME280;60680;52.182;5.398;2022-10-15T06:49:15;100649.91;;;12.03;100.00
71976;BME280;60680;52.182;5.398;2022-10-15T06:51:41;100649.91;;;12.03;100.00
71976;BME280;60680;52.182;5.398;2022-10-15T06:54:09;100651.47;;;12.06;100.00
71976;BME280;60680;52.182;5.398;2022-10-15T06:56:36;100654.00;;;12.07;100.00
71976;BME280;60680;52.182;5.398;2022-10-15T06:59:04;100653.06;;;12.08;100.00
71976;BME280;60680;52.182;5.398;2022-10-15T07:01:30;100652.97;;;12.10;100.00
71976;BME280;60680;52.182;5.398;2022-10-15T07:03:57;100649.34;;;12.12;100.00
71976;BME280;60680;52.182;5.398;2022-10-15T07:06:23;100645.78;;;12.13;100.00
71976;BME280;60680;52.182;5.398;2022-10-15T07:08:50;100643.91;;;12.15;100.00
71976;BME280;60680;52.182;5.398;2022-10-15T07:11:17;100643.84;;;12.17;100.00
71976;BME280;60680;52.182;5.398;2022-10-15T07:13:43;100648.97;;;12.18;100.00
71976;BME280;60680;52.182;5.398;2022-10-15T07:16:11;100644.59;;;12.19;100.00
71976;BME280;60680;52.182;5.398;2022-10-15T07:18:38;100656.59;;;12.21;100.00
71976;BME280;60680;52.182;5.398;2022-10-15T07:21:06;100659.13;;;12.23;100.00
71976;BME280;60680;52.182;5.398;2022-10-15T07:23:33;100660.81;;;12.24;100.00
71976;BME280;60680;52.182;5.398;2022-10-15T07:26:00;100657.25;;;12.25;100.00
71976;BME280;60680;52.182;5.398;2022-10-15T07:28:26;100658.84;;;12.28;100.00
71976;BME280;60680;52.182;5.398;2022-10-15T07:30:52;100665.63;;;12.30;100.00
71976;BME280;60680;52.182;5.398;2022-10-15T07:33:19;100668.06;;;12.33;100.00
71976;BME280;60680;52.182;5.398;2022-10-15T07:35:45;100673.22;;;12.35;100.00
71976;BME280;60680;52.182;5.398;2022-10-15T07:38:12;100666.97;;;12.37;100.00
71976;BME280;60680;52.182;5.398;2022-10-15T07:40:38;100667.78;;;12.38;100.00
71976;BME280;60680;52.182;5.398;2022-10-15T07:43:05;100655.56;;;12.38;100.00
71976;BME280;60680;52.182;5.398;2022-10-15T07:45:31;100658.00;;;12.41;100.00
71976;BME280;60680;52.182;5.398;2022-10-15T07:47:58;100655.28;;;12.43;100.00
71976;BME280;60680;52.182;5.398;2022-10-15T07:50:24;100650.81;;;12.45;100.00
71976;BME280;60680;52.182;5.398;2022-10-15T07:52:55;100648.94;;;12.47;100.00
71976;BME280;60680;52.182;5.398;2022-10-15T07:55:22;100644.47;;;12.49;100.00
71976;BME280;60680;52.182;5.398;2022-10-15T07:57:48;100650.34;;;12.53;100.00
71976;BME280;60680;52.182;5.398;2022-10-15T08:00:15;100649.25;;;12.57;100.00
71976;BME280;60680;52.182;5.398;2022-10-15T08:02:41;100656.03;;;12.59;100.00
71976;BME280;60680;52.182;5.398;2022-10-15T08:05:08;100647.28;;;12.60;100.00
71976;BME280;60680;52.182;5.398;2022-10-15T08:07:34;100647.09;;;12.63;100.00
71976;BME280;60680;52.182;5.398;2022-10-15T08:10:01;100644.19;;;12.68;100.00
71976;BME280;60680;52.182;5.398;2022-10-15T08:12:27;100644.00;;;12.71;100.00
71976;BME280;60680;52.182;5.398;2022-10-15T08:14:54;100634.31;;;12.73;100.00
71976;BME280;60680;52.182;5.398;2022-10-15T08:17:21;100623.66;;;12.76;100.00
71976;BME280;60680;52.182;5.398;2022-10-15T08:19:47;100615.53;;;12.81;100.00
71976;BME280;60680;52.182;5.398;2022-10-15T08:22:14;100607.38;;;12.85;100.00
71976;BME280;60680;52.182;5.398;2022-10-15T08:24:40;100608.13;;;12.88;100.00
71976;BME280;60680;52.182;5.398;2022-10-15T08:27:06;100606.25;;;12.90;100.00
71976;BME280;60680;52.182;5.398;2022-10-15T08:29:33;100615.78;;;12.91;100.00
71976;BME280;60680;52.182;5.398;2022-10-15T08:32:00;100607.00;;;12.92;99.93
71976;BME280;60680;52.182;5.398;2022-10-15T08:34:26;100603.66;;;12.90;100.00
71976;BME280;60680;52.182;5.398;2022-10-15T08:36:53;100611.41;;;12.91;99.75
71976;BME280;60680;52.182;5.398;2022-10-15T08:39:19;100620.81;;;12.94;99.71
71976;BME280;60680;52.182;5.398;2022-10-15T08:41:55;100606.53;;;12.99;100.00
71976;BME280;60680;52.182;5.398;2022-10-15T08:46:55;100608.22;;;13.13;99.84
71976;BME280;60680;52.182;5.398;2022-10-15T08:49:46;100605.97;;;13.21;99.75
71976;BME280;60680;52.182;5.398;2022-10-15T08:52:19;100605.41;;;13.31;99.67
71976;BME280;60680;52.182;5.398;2022-10-15T08:54:46;100602.41;;;13.50;99.78
71976;BME280;60680;52.182;5.398;2022-10-15T09:00:12;100600.44;;;13.92;98.54
71976;BME280;60680;52.182;5.398;2022-10-15T09:05:29;100592.81;;;14.01;97.15
71976;BME280;60680;52.182;5.398;2022-10-15T09:13:11;100588.72;;;14.10;96.06
71976;BME280;60680;52.182;5.398;2022-10-15T09:16:04;100578.88;;;14.14;96.66
71976;BME280;60680;52.182;5.398;2022-10-15T09:18:36;100582.56;;;14.11;95.97
71976;BME280;60680;52.182;5.398;2022-10-15T09:21:04;100573.25;;;14.07;95.85
71976;BME280;60680;52.182;5.398;2022-10-15T09:23:32;100575.31;;;14.02;95.90
71976;BME280;60680;52.182;5.398;2022-10-15T09:28:48;100576.78;;;14.06;96.37
71976;BME280;60680;52.182;5.398;2022-10-15T09:31:21;100574.16;;;14.06;96.28
71976;BME280;60680;52.182;5.398;2022-10-15T09:33:53;100572.59;;;14.03;95.97
71976;BME280;60680;52.182;5.398;2022-10-15T09:41:54;100566.72;;;14.13;95.51
71976;BME280;60680;52.182;5.398;2022-10-15T09:44:30;100553.25;;;14.06;95.55
71976;BME280;60680;52.182;5.398;2022-10-15T09:46:58;100562.25;;;14.02;96.27
71976;BME280;60680;52.182;5.398;2022-10-15T09:49:26;100574.81;;;13.97;95.74
71976;BME280;60680;52.182;5.398;2022-10-15T09:52:10;100572.28;;;13.95;95.90
71976;BME280;60680;52.182;5.398;2022-10-15T09:57:16;100563.81;;;13.92;96.27
71976;BME280;60680;52.182;5.398;2022-10-15T09:59:58;100563.63;;;13.95;96.23
71976;BME280;60680;52.182;5.398;2022-10-15T10:02:28;100560.38;;;13.91;96.51
71976;BME280;60680;52.182;5.398;2022-10-15T10:04:55;100550.88;;;13.90;95.91
71976;BME280;60680;52.182;5.398;2022-10-15T10:07:32;100543.00;;;13.90;96.53
71976;BME280;60680;52.182;5.398;2022-10-15T10:10:03;100519.47;;;13.90;97.29
71976;BME280;60680;52.182;5.398;2022-10-15T10:12:34;100528.16;;;13.91;97.18
71976;BME280;60680;52.182;5.398;2022-10-15T10:15:06;100526.38;;;13.91;98.12
71976;BME280;60680;52.182;5.398;2022-10-15T10:17:34;100531.41;;;13.94;98.64
71976;BME280;60680;52.182;5.398;2022-10-15T10:20:20;100527.81;;;13.95;99.08
71976;BME280;60680;52.182;5.398;2022-10-15T10:22:51;100537.47;;;13.95;99.31
71976;BME280;60680;52.182;5.398;2022-10-15T10:25:45;100530.34;;;13.97;99.30
71976;BME280;60680;52.182;5.398;2022-10-15T10:30:48;100520.59;;;14.12;100.00
71976;BME280;60680;52.182;5.398;2022-10-15T10:33:24;100520.03;;;14.19;100.00
71976;BME280;60680;52.182;5.398;2022-10-15T10:35:52;100527.03;;;14.19;100.00
71976;BME280;60680;52.182;5.398;2022-10-15T10:38:25;100521.72;;;14.20;100.00
71976;BME280;60680;52.182;5.398;2022-10-15T10:40:55;100526.94;;;14.20;100.00
71976;BME280;60680;52.182;5.398;2022-10-15T10:43:26;100523.38;;;14.21;100.00
71976;BME280;60680;52.182;5.398;2022-10-15T10:46:15;100523.16;;;14.24;100.00
71976;BME280;60680;52.182;5.398;2022-10-15T10:48:50;100525.69;;;14.26;100.00
71976;BME280;60680;52.182;5.398;2022-10-15T10:51:21;100517.94;;;14.24;100.00
71976;BME280;60680;52.182;5.398;2022-10-15T10:54:02;100517.09;;;14.24;100.00
71976;BME280;60680;52.182;5.398;2022-10-15T10:59:25;100513.13;;;14.18;100.00
71976;BME280;60680;52.182;5.398;2022-10-15T11:01:53;100514.38;;;14.13;100.00
71976;BME280;60680;52.182;5.398;2022-10-15T11:04:29;100513.56;;;14.12;100.00
71976;BME280;60680;52.182;5.398;2022-10-15T11:07:20;100507.28;;;14.15;100.00
71976;BME280;60680;52.182;5.398;2022-10-15T11:24:15;100499.03;;;14.32;100.00
71976;BME280;60680;52.182;5.398;2022-10-15T11:35:38;100483.75;;;14.39;100.00
71976;BME280;60680;52.182;5.398;2022-10-15T11:38:29;100485.41;;;14.40;100.00
71976;BME280;60680;52.182;5.398;2022-10-15T11:51:11;100481.16;;;14.39;100.00
71976;BME280;60680;52.182;5.398;2022-10-15T11:53:54;100474.94;;;14.40;100.00
71976;BME280;60680;52.182;5.398;2022-10-15T11:56:38;100474.84;;;14.41;100.00
71976;BME280;60680;52.182;5.398;2022-10-15T11:59:18;100472.81;;;14.45;100.00
71976;BME280;60680;52.182;5.398;2022-10-15T12:01:52;100462.03;;;14.50;100.00
71976;BME280;60680;52.182;5.398;2022-10-15T12:04:28;100468.00;;;14.52;100.00
71976;BME280;60680;52.182;5.398;2022-10-15T12:07:00;100462.53;;;14.55;100.00
71976;BME280;60680;52.182;5.398;2022-10-15T12:09:33;100464.09;;;14.57;100.00
71976;BME280;60680;52.182;5.398;2022-10-15T12:12:10;100466.53;;;14.60;100.00
71976;BME280;60680;52.182;5.398;2022-10-15T12:14:44;100472.34;;;14.64;100.00
71976;BME280;60680;52.182;5.398;2022-10-15T12:17:22;100471.19;;;14.68;100.00
71976;BME280;60680;52.182;5.398;2022-10-15T12:19:59;100471.06;;;14.70;100.00
71976;BME280;60680;52.182;5.398;2022-10-15T12:22:33;100469.06;;;14.73;100.00
71976;BME280;60680;52.182;5.398;2022-10-15T12:25:00;100460.13;;;14.76;100.00
71976;BME280;60680;52.182;5.398;2022-10-15T12:27:32;100462.41;;;14.80;100.00
71976;BME280;60680;52.182;5.398;2022-10-15T12:32:35;100460.31;;;14.85;100.00
71976;BME280;60680;52.182;5.398;2022-10-15T12:37:42;100458.50;;;14.86;100.00
71976;BME280;60680;52.182;5.398;2022-10-15T12:40:26;100465.31;;;14.88;100.00
71976;BME280;60680;52.182;5.398;2022-10-15T12:42:57;100473.16;;;14.88;100.00
71976;BME280;60680;52.182;5.398;2022-10-15T12:48:16;100463.16;;;14.94;100.00
71976;BME280;60680;52.182;5.398;2022-10-15T12:50:44;100470.19;;;14.93;100.00
71976;BME280;60680;52.182;5.398;2022-10-15T12:58:37;100476.78;;;14.99;100.00
71976;BME280;60680;52.182;5.398;2022-10-15T13:11:29;100479.66;;;15.07;100.00
71976;BME280;60680;52.182;5.398;2022-10-15T13:16:46;100488.00;;;15.12;100.00
71976;BME280;60680;52.182;5.398;2022-10-15T13:19:31;100488.72;;;15.14;100.00
71976;BME280;60680;52.182;5.398;2022-10-15T13:22:01;100483.84;;;15.21;100.00
71976;BME280;60680;52.182;5.398;2022-10-15T13:24:30;100486.81;;;15.27;100.00
71976;BME280;60680;52.182;5.398;2022-10-15T13:27:20;100492.22;;;15.37;100.00
71976;BME280;60680;52.182;5.398;2022-10-15T13:30:01;100498.41;;;15.36;100.00
71976;BME280;60680;52.182;5.398;2022-10-15T13:32:35;100496.75;;;15.35;100.00
71976;BME280;60680;52.182;5.398;2022-10-15T13:35:10;100494.22;;;15.34;100.00
71976;BME280;60680;52.182;5.398;2022-10-15T13:37:39;100492.56;;;15.33;100.00
71976;BME280;60680;52.182;5.398;2022-10-15T13:40:06;100495.91;;;15.35;100.00
71976;BME280;60680;52.182;5.398;2022-10-15T13:42:34;100489.97;;;15.44;100.00
71976;BME280;60680;52.182;5.398;2022-10-15T13:47:34;100497.97;;;15.54;100.00
71976;BME280;60680;52.182;5.398;2022-10-15T13:50:25;100495.94;;;15.57;100.00
71976;BME280;60680;52.182;5.398;2022-10-15T13:53:05;100504.75;;;15.56;100.00
71976;BME280;60680;52.182;5.398;2022-10-15T13:55:38;100505.69;;;15.55;100.00
71976;BME280;60680;52.182;5.398;2022-10-15T13:58:23;100514.44;;;15.56;100.00
71976;BME280;60680;52.182;5.398;2022-10-15T14:01:02;100515.16;;;15.58;99.41
71976;BME280;60680;52.182;5.398;2022-10-15T14:03:34;100512.03;;;15.64;100.00
71976;BME280;60680;52.182;5.398;2022-10-15T14:08:52;100527.00;;;15.75;99.44
71976;BME280;60680;52.182;5.398;2022-10-15T14:11:19;100525.06;;;15.77;99.70
71976;BME280;60680;52.182;5.398;2022-10-15T14:13:52;100528.66;;;15.76;99.05
71976;BME280;60680;52.182;5.398;2022-10-15T14:16:29;100522.44;;;15.77;99.28
71976;BME280;60680;52.182;5.398;2022-10-15T14:21:33;100539.59;;;15.81;98.26
71976;BME280;60680;52.182;5.398;2022-10-15T14:24:19;100538.69;;;15.82;97.86
71976;BME280;60680;52.182;5.398;2022-10-15T14:26:47;100534.88;;;15.75;96.85
71976;BME280;60680;52.182;5.398;2022-10-15T14:29:35;100549.53;;;15.77;97.39
71976;BME280;60680;52.182;5.398;2022-10-15T14:32:20;100546.28;;;15.74;96.81
71976;BME280;60680;52.182;5.398;2022-10-15T14:34:47;100547.00;;;15.76;97.29
71976;BME280;60680;52.182;5.398;2022-10-15T14:37:30;100553.34;;;15.84;97.52
71976;BME280;60680;52.182;5.398;2022-10-15T14:42:45;100567.28;;;15.85;97.33
71976;BME280;60680;52.182;5.398;2022-10-15T14:45:38;100584.72;;;15.86;96.96
71976;BME280;60680;52.182;5.398;2022-10-15T14:48:10;100578.38;;;15.77;94.99
71976;BME280;60680;52.182;5.398;2022-10-15T14:50:41;100584.81;;;15.73;95.53
71976;BME280;60680;52.182;5.398;2022-10-15T14:53:13;100589.31;;;15.71;95.17
71976;BME280;60680;52.182;5.398;2022-10-15T14:55:42;100590.19;;;15.72;95.17